sensor_id;sensor_type;location;lat;lon;timestamp;P1;durP1;ratioP1;P2;durP2;ratioP2
3971;SDS011;2000;47.572;14.202;2022-07-18T00:02:00;7.73;;;3.33;;
3971;SDS011;2000;47.572;14.202;2022-07-18T00:04:28;4.93;;;3.23;;
3971;SDS011;2000;47.572;14.202;2022-07-18T00:06:55;3.90;;;3.53;;
3971;SDS011;2000;47.572;14.202;2022-07-18T00:09:23;5.33;;;3.30;;
3971;SDS011;2000;47.572;14.202;2022-07-18T00:11:50;4.00;;;3.50;;
3971;SDS011;2000;47.572;14.202;2022-07-18T00:14:18;6.23;;;4.00;;
3971;SDS011;2000;47.572;14.202;2022-07-18T00:16:45;3.73;;;3.10;;
3971;SDS011;2000;47.572;14.202;2022-07-18T00:19:12;6.60;;;3.60;;
3971;SDS011;2000;47.572;14.202;2022-07-18T00:21:39;4.00;;;2.80;;
3971;SDS011;2000;47.572;14.202;2022-07-18T00:24:06;3.60;;;3.30;;
3971;SDS011;2000;47.572;14.202;2022-07-18T00:26:32;3.77;;;3.43;;
3971;SDS011;2000;47.572;14.202;2022-07-18T00:28:59;5.10;;;3.53;;
3971;SDS011;2000;47.572;14.202;2022-07-18T00:31:27;4.20;;;3.80;;
3971;SDS011;2000;47.572;14.202;2022-07-18T00:33:53;4.83;;;4.00;;
3971;SDS011;2000;47.572;14.202;2022-07-18T00:36:20;3.50;;;3.20;;
3971;SDS011;2000;47.572;14.202;2022-07-18T00:38:47;5.60;;;4.20;;
3971;SDS011;2000;47.572;14.202;2022-07-18T00:41:14;6.17;;;3.50;;
3971;SDS011;2000;47.572;14.202;2022-07-18T00:43:42;3.73;;;3.40;;
3971;SDS011;2000;47.572;14.202;2022-07-18T00:46:09;5.00;;;3.30;;
3971;SDS011;2000;47.572;14.202;2022-07-18T00:48:38;6.27;;;3.10;;
3971;SDS011;2000;47.572;14.202;2022-07-18T00:51:06;6.83;;;3.80;;
3971;SDS011;2000;47.572;14.202;2022-07-18T00:53:33;6.70;;;3.80;;
3971;SDS011;2000;47.572;14.202;2022-07-18T00:56:01;4.00;;;3.50;;
3971;SDS011;2000;47.572;14.202;2022-07-18T00:58:28;13.37;;;3.80;;
3971;SDS011;2000;47.572;14.202;2022-07-18T01:00:56;3.90;;;3.60;;
3971;SDS011;2000;47.572;14.202;2022-07-18T01:03:42;3.83;;;3.23;;
3971;SDS011;2000;47.572;14.202;2022-07-18T01:06:09;9.43;;;3.40;;
3971;SDS011;2000;47.572;14.202;2022-07-18T01:08:35;5.80;;;3.40;;
3971;SDS011;2000;47.572;14.202;2022-07-18T01:11:04;6.70;;;3.37;;
3971;SDS011;2000;47.572;14.202;2022-07-18T01:13:31;7.67;;;3.20;;
3971;SDS011;2000;47.572;14.202;2022-07-18T01:15:58;5.17;;;2.70;;
3971;SDS011;2000;47.572;14.202;2022-07-18T01:18:25;7.63;;;4.03;;
3971;SDS011;2000;47.572;14.202;2022-07-18T01:20:52;5.63;;;3.53;;
3971;SDS011;2000;47.572;14.202;2022-07-18T01:23:19;4.40;;;3.87;;
3971;SDS011;2000;47.572;14.202;2022-07-18T01:25:46;4.00;;;3.50;;
3971;SDS011;2000;47.572;14.202;2022-07-18T01:28:12;5.03;;;3.00;;
3971;SDS011;2000;47.572;14.202;2022-07-18T01:30:39;4.00;;;3.60;;
3971;SDS011;2000;47.572;14.202;2022-07-18T01:33:06;3.73;;;3.27;;
3971;SDS011;2000;47.572;14.202;2022-07-18T01:35:33;5.43;;;3.50;;
3971;SDS011;2000;47.572;14.202;2022-07-18T01:38:01;6.30;;;3.30;;
3971;SDS011;2000;47.572;14.202;2022-07-18T01:40:28;6.67;;;4.07;;
3971;SDS011;2000;47.572;14.202;2022-07-18T01:42:55;5.83;;;2.67;;
3971;SDS011;2000;47.572;14.202;2022-07-18T01:45:22;4.43;;;3.50;;
3971;SDS011;2000;47.572;14.202;2022-07-18T01:47:49;3.83;;;3.43;;
3971;SDS011;2000;47.572;14.202;2022-07-18T01:50:15;7.13;;;3.57;;
3971;SDS011;2000;47.572;14.202;2022-07-18T01:52:42;4.53;;;3.10;;
3971;SDS011;2000;47.572;14.202;2022-07-18T01:55:09;7.10;;;3.80;;
3971;SDS011;2000;47.572;14.202;2022-07-18T01:57:37;4.63;;;3.40;;
3971;SDS011;2000;47.572;14.202;2022-07-18T02:00:04;5.03;;;3.70;;
3971;SDS011;2000;47.572;14.202;2022-07-18T02:02:33;3.47;;;3.17;;
3971;SDS011;2000;47.572;14.202;2022-07-18T02:04:59;7.33;;;3.80;;
3971;SDS011;2000;47.572;14.202;2022-07-18T02:07:27;3.80;;;3.50;;
3971;SDS011;2000;47.572;14.202;2022-07-18T02:09:58;9.80;;;3.70;;
3971;SDS011;2000;47.572;14.202;2022-07-18T02:12:26;8.63;;;3.40;;
3971;SDS011;2000;47.572;14.202;2022-07-18T02:14:53;4.13;;;3.27;;
3971;SDS011;2000;47.572;14.202;2022-07-18T02:17:19;5.00;;;3.90;;
3971;SDS011;2000;47.572;14.202;2022-07-18T02:19:46;5.30;;;4.47;;
3971;SDS011;2000;47.572;14.202;2022-07-18T02:22:13;5.50;;;4.37;;
3971;SDS011;2000;47.572;14.202;2022-07-18T02:24:40;6.97;;;3.43;;
3971;SDS011;2000;47.572;14.202;2022-07-18T02:27:07;3.60;;;3.30;;
3971;SDS011;2000;47.572;14.202;2022-07-18T02:29:34;3.87;;;3.50;;
3971;SDS011;2000;47.572;14.202;2022-07-18T02:32:01;5.03;;;3.50;;
3971;SDS011;2000;47.572;14.202;2022-07-18T02:34:28;4.70;;;3.20;;
3971;SDS011;2000;47.572;14.202;2022-07-18T02:36:55;7.43;;;3.60;;
3971;SDS011;2000;47.572;14.202;2022-07-18T02:39:21;4.13;;;3.33;;
3971;SDS011;2000;47.572;14.202;2022-07-18T02:41:48;7.70;;;4.13;;
3971;SDS011;2000;47.572;14.202;2022-07-18T02:44:15;3.53;;;3.23;;
3971;SDS011;2000;47.572;14.202;2022-07-18T02:46:42;7.70;;;3.70;;
3971;SDS011;2000;47.572;14.202;2022-07-18T02:49:09;5.20;;;4.00;;
3971;SDS011;2000;47.572;14.202;2022-07-18T02:51:36;5.17;;;3.73;;
3971;SDS011;2000;47.572;14.202;2022-07-18T02:54:02;5.10;;;3.80;;
3971;SDS011;2000;47.572;14.202;2022-07-18T02:56:30;7.20;;;4.30;;
3971;SDS011;2000;47.572;14.202;2022-07-18T02:58:57;4.97;;;3.80;;
3971;SDS011;2000;47.572;14.202;2022-07-18T03:01:24;8.97;;;4.00;;
3971;SDS011;2000;47.572;14.202;2022-07-18T03:03:50;7.00;;;4.33;;
3971;SDS011;2000;47.572;14.202;2022-07-18T03:06:17;7.33;;;3.90;;
3971;SDS011;2000;47.572;14.202;2022-07-18T03:08:44;6.83;;;3.63;;
3971;SDS011;2000;47.572;14.202;2022-07-18T03:11:11;8.77;;;3.83;;
3971;SDS011;2000;47.572;14.202;2022-07-18T03:13:37;4.73;;;3.40;;
3971;SDS011;2000;47.572;14.202;2022-07-18T03:16:04;5.20;;;3.70;;
3971;SDS011;2000;47.572;14.202;2022-07-18T03:18:31;4.37;;;3.57;;
3971;SDS011;2000;47.572;14.202;2022-07-18T03:20:58;4.60;;;3.87;;
3971;SDS011;2000;47.572;14.202;2022-07-18T03:23:24;4.80;;;3.87;;
3971;SDS011;2000;47.572;14.202;2022-07-18T03:25:51;4.17;;;3.77;;
3971;SDS011;2000;47.572;14.202;2022-07-18T03:28:18;8.33;;;5.07;;
3971;SDS011;2000;47.572;14.202;2022-07-18T03:30:44;5.03;;;3.50;;
3971;SDS011;2000;47.572;14.202;2022-07-18T03:33:12;6.80;;;4.43;;
3971;SDS011;2000;47.572;14.202;2022-07-18T03:35:38;4.87;;;4.40;;
3971;SDS011;2000;47.572;14.202;2022-07-18T03:38:05;6.63;;;3.90;;
3971;SDS011;2000;47.572;14.202;2022-07-18T03:40:32;11.30;;;3.77;;
3971;SDS011;2000;47.572;14.202;2022-07-18T03:42:59;6.20;;;3.80;;
3971;SDS011;2000;47.572;14.202;2022-07-18T03:45:25;6.10;;;3.83;;
3971;SDS011;2000;47.572;14.202;2022-07-18T03:47:52;4.80;;;4.10;;
3971;SDS011;2000;47.572;14.202;2022-07-18T03:50:19;8.83;;;4.13;;
3971;SDS011;2000;47.572;14.202;2022-07-18T03:52:45;4.13;;;3.73;;
3971;SDS011;2000;47.572;14.202;2022-07-18T03:55:12;4.47;;;4.07;;
3971;SDS011;2000;47.572;14.202;2022-07-18T03:57:39;8.10;;;3.80;;
3971;SDS011;2000;47.572;14.202;2022-07-18T04:00:09;7.27;;;4.60;;
3971;SDS011;2000;47.572;14.202;2022-07-18T04:02:43;6.70;;;4.67;;
3971;SDS011;2000;47.572;14.202;2022-07-18T04:05:11;5.97;;;4.33;;
3971;SDS011;2000;47.572;14.202;2022-07-18T04:07:38;10.70;;;4.33;;
3971;SDS011;2000;47.572;14.202;2022-07-18T04:10:06;4.70;;;4.20;;
3971;SDS011;2000;47.572;14.202;2022-07-18T04:12:34;3.57;;;3.27;;
3971;SDS011;2000;47.572;14.202;2022-07-18T04:15:00;5.87;;;4.40;;
3971;SDS011;2000;47.572;14.202;2022-07-18T04:17:29;4.10;;;3.70;;
3971;SDS011;2000;47.572;14.202;2022-07-18T04:19:56;5.17;;;3.73;;
3971;SDS011;2000;47.572;14.202;2022-07-18T04:22:22;5.10;;;4.50;;
3971;SDS011;2000;47.572;14.202;2022-07-18T04:24:49;9.63;;;4.77;;
3971;SDS011;2000;47.572;14.202;2022-07-18T04:27:18;7.47;;;4.40;;
3971;SDS011;2000;47.572;14.202;2022-07-18T04:29:45;3.80;;;3.50;;
3971;SDS011;2000;47.572;14.202;2022-07-18T04:32:12;4.87;;;3.43;;
3971;SDS011;2000;47.572;14.202;2022-07-18T04:34:38;6.40;;;5.47;;
3971;SDS011;2000;47.572;14.202;2022-07-18T04:37:05;13.60;;;5.47;;
3971;SDS011;2000;47.572;14.202;2022-07-18T04:39:32;16.53;;;5.20;;
3971;SDS011;2000;47.572;14.202;2022-07-18T04:41:59;12.87;;;5.70;;
3971;SDS011;2000;47.572;14.202;2022-07-18T04:44:25;8.03;;;4.77;;
3971;SDS011;2000;47.572;14.202;2022-07-18T04:46:52;13.27;;;4.67;;
3971;SDS011;2000;47.572;14.202;2022-07-18T04:49:19;19.30;;;4.77;;
3971;SDS011;2000;47.572;14.202;2022-07-18T04:51:46;4.90;;;3.60;;
3971;SDS011;2000;47.572;14.202;2022-07-18T04:54:12;4.20;;;3.63;;
3971;SDS011;2000;47.572;14.202;2022-07-18T04:56:39;7.17;;;3.87;;
3971;SDS011;2000;47.572;14.202;2022-07-18T04:59:06;8.70;;;4.40;;
3971;SDS011;2000;47.572;14.202;2022-07-18T05:01:32;4.67;;;4.03;;
3971;SDS011;2000;47.572;14.202;2022-07-18T05:04:01;6.60;;;3.90;;
3971;SDS011;2000;47.572;14.202;2022-07-18T05:06:28;6.93;;;5.30;;
3971;SDS011;2000;47.572;14.202;2022-07-18T05:08:55;6.87;;;6.27;;
3971;SDS011;2000;47.572;14.202;2022-07-18T05:11:22;9.63;;;8.70;;
3971;SDS011;2000;47.572;14.202;2022-07-18T05:13:48;10.53;;;9.53;;
3971;SDS011;2000;47.572;14.202;2022-07-18T05:16:15;10.70;;;8.33;;
3971;SDS011;2000;47.572;14.202;2022-07-18T05:18:43;11.87;;;5.90;;
3971;SDS011;2000;47.572;14.202;2022-07-18T05:21:10;6.60;;;6.00;;
3971;SDS011;2000;47.572;14.202;2022-07-18T05:23:37;6.43;;;5.50;;
3971;SDS011;2000;47.572;14.202;2022-07-18T05:26:03;8.53;;;5.07;;
3971;SDS011;2000;47.572;14.202;2022-07-18T05:28:30;7.10;;;4.57;;
3971;SDS011;2000;47.572;14.202;2022-07-18T05:30:57;9.50;;;5.57;;
3971;SDS011;2000;47.572;14.202;2022-07-18T05:33:25;10.60;;;5.50;;
3971;SDS011;2000;47.572;14.202;2022-07-18T05:35:52;6.07;;;5.03;;
3971;SDS011;2000;47.572;14.202;2022-07-18T05:38:19;4.97;;;4.30;;
3971;SDS011;2000;47.572;14.202;2022-07-18T05:40:45;9.73;;;5.73;;
3971;SDS011;2000;47.572;14.202;2022-07-18T05:43:12;10.30;;;4.80;;
3971;SDS011;2000;47.572;14.202;2022-07-18T05:45:39;14.67;;;5.00;;
3971;SDS011;2000;47.572;14.202;2022-07-18T05:48:06;15.77;;;5.37;;
3971;SDS011;2000;47.572;14.202;2022-07-18T05:50:33;9.27;;;5.63;;
3971;SDS011;2000;47.572;14.202;2022-07-18T05:53:00;8.97;;;5.70;;
3971;SDS011;2000;47.572;14.202;2022-07-18T05:55:27;8.63;;;5.07;;
3971;SDS011;2000;47.572;14.202;2022-07-18T05:57:54;8.57;;;5.13;;
3971;SDS011;2000;47.572;14.202;2022-07-18T06:00:21;12.60;;;6.67;;
3971;SDS011;2000;47.572;14.202;2022-07-18T06:02:48;9.93;;;5.47;;
3971;SDS011;2000;47.572;14.202;2022-07-18T06:05:15;12.50;;;6.30;;
3971;SDS011;2000;47.572;14.202;2022-07-18T06:07:49;9.10;;;5.43;;
3971;SDS011;2000;47.572;14.202;2022-07-18T06:10:16;10.73;;;5.97;;
3971;SDS011;2000;47.572;14.202;2022-07-18T06:12:43;11.50;;;6.23;;
3971;SDS011;2000;47.572;14.202;2022-07-18T06:15:10;10.40;;;6.20;;
3971;SDS011;2000;47.572;14.202;2022-07-18T06:17:38;11.53;;;4.83;;
3971;SDS011;2000;47.572;14.202;2022-07-18T06:20:05;5.70;;;4.60;;
3971;SDS011;2000;47.572;14.202;2022-07-18T06:22:34;10.17;;;5.93;;
3971;SDS011;2000;47.572;14.202;2022-07-18T06:25:02;5.77;;;5.17;;
3971;SDS011;2000;47.572;14.202;2022-07-18T06:27:29;8.73;;;5.03;;
3971;SDS011;2000;47.572;14.202;2022-07-18T06:29:56;7.30;;;4.03;;
3971;SDS011;2000;47.572;14.202;2022-07-18T06:32:25;5.90;;;4.80;;
3971;SDS011;2000;47.572;14.202;2022-07-18T06:34:52;5.07;;;4.57;;
3971;SDS011;2000;47.572;14.202;2022-07-18T06:37:19;10.77;;;5.10;;
3971;SDS011;2000;47.572;14.202;2022-07-18T06:39:46;7.27;;;4.60;;
3971;SDS011;2000;47.572;14.202;2022-07-18T06:42:12;8.13;;;5.33;;
3971;SDS011;2000;47.572;14.202;2022-07-18T06:44:40;6.40;;;4.73;;
3971;SDS011;2000;47.572;14.202;2022-07-18T06:47:07;10.63;;;4.70;;
3971;SDS011;2000;47.572;14.202;2022-07-18T06:49:33;6.27;;;4.37;;
3971;SDS011;2000;47.572;14.202;2022-07-18T06:52:00;5.30;;;4.80;;
3971;SDS011;2000;47.572;14.202;2022-07-18T06:54:30;7.13;;;4.37;;
3971;SDS011;2000;47.572;14.202;2022-07-18T06:56:59;7.00;;;4.73;;
3971;SDS011;2000;47.572;14.202;2022-07-18T06:59:26;9.30;;;4.50;;
3971;SDS011;2000;47.572;14.202;2022-07-18T07:01:53;4.77;;;4.17;;
3971;SDS011;2000;47.572;14.202;2022-07-18T07:04:20;3.93;;;3.53;;
3971;SDS011;2000;47.572;14.202;2022-07-18T07:06:47;7.50;;;4.20;;
3971;SDS011;2000;47.572;14.202;2022-07-18T07:09:14;5.30;;;4.10;;
3971;SDS011;2000;47.572;14.202;2022-07-18T07:11:41;5.53;;;4.50;;
3971;SDS011;2000;47.572;14.202;2022-07-18T07:14:07;5.47;;;3.80;;
3971;SDS011;2000;47.572;14.202;2022-07-18T07:16:34;7.13;;;3.70;;
3971;SDS011;2000;47.572;14.202;2022-07-18T07:19:01;4.70;;;4.07;;
3971;SDS011;2000;47.572;14.202;2022-07-18T07:21:28;5.07;;;4.47;;
3971;SDS011;2000;47.572;14.202;2022-07-18T07:23:55;6.93;;;4.10;;
3971;SDS011;2000;47.572;14.202;2022-07-18T07:26:22;5.03;;;3.80;;
3971;SDS011;2000;47.572;14.202;2022-07-18T07:28:50;5.73;;;4.67;;
3971;SDS011;2000;47.572;14.202;2022-07-18T07:31:17;5.60;;;4.20;;
3971;SDS011;2000;47.572;14.202;2022-07-18T07:33:44;6.07;;;3.80;;
3971;SDS011;2000;47.572;14.202;2022-07-18T07:36:11;4.67;;;4.27;;
3971;SDS011;2000;47.572;14.202;2022-07-18T07:38:38;7.83;;;4.73;;
3971;SDS011;2000;47.572;14.202;2022-07-18T07:41:05;3.80;;;3.50;;
3971;SDS011;2000;47.572;14.202;2022-07-18T07:43:33;6.13;;;4.53;;
3971;SDS011;2000;47.572;14.202;2022-07-18T07:46:02;7.73;;;4.40;;
3971;SDS011;2000;47.572;14.202;2022-07-18T07:48:29;3.70;;;3.40;;
3971;SDS011;2000;47.572;14.202;2022-07-18T07:50:56;6.27;;;4.53;;
3971;SDS011;2000;47.572;14.202;2022-07-18T07:53:24;6.47;;;4.87;;
3971;SDS011;2000;47.572;14.202;2022-07-18T07:55:51;8.90;;;3.80;;
3971;SDS011;2000;47.572;14.202;2022-07-18T07:58:18;6.10;;;4.10;;
3971;SDS011;2000;47.572;14.202;2022-07-18T08:00:45;5.13;;;4.30;;
3971;SDS011;2000;47.572;14.202;2022-07-18T08:03:12;5.23;;;4.10;;
3971;SDS011;2000;47.572;14.202;2022-07-18T08:05:44;3.27;;;2.97;;
3971;SDS011;2000;47.572;14.202;2022-07-18T08:08:11;4.60;;;4.10;;
3971;SDS011;2000;47.572;14.202;2022-07-18T08:10:38;12.83;;;4.27;;
3971;SDS011;2000;47.572;14.202;2022-07-18T08:13:09;9.53;;;4.90;;
3971;SDS011;2000;47.572;14.202;2022-07-18T08:15:38;5.00;;;3.63;;
3971;SDS011;2000;47.572;14.202;2022-07-18T08:18:05;4.30;;;3.90;;
3971;SDS011;2000;47.572;14.202;2022-07-18T08:20:31;8.63;;;4.00;;
3971;SDS011;2000;47.572;14.202;2022-07-18T08:25:28;6.37;;;4.00;;
3971;SDS011;2000;47.572;14.202;2022-07-18T08:27:56;13.80;;;4.30;;
3971;SDS011;2000;47.572;14.202;2022-07-18T08:30:24;11.43;;;4.07;;
3971;SDS011;2000;47.572;14.202;2022-07-18T08:32:51;6.10;;;4.00;;
3971;SDS011;2000;47.572;14.202;2022-07-18T08:35:19;4.40;;;4.00;;
3971;SDS011;2000;47.572;14.202;2022-07-18T08:37:46;8.97;;;5.33;;
3971;SDS011;2000;47.572;14.202;2022-07-18T08:40:13;8.57;;;4.40;;
3971;SDS011;2000;47.572;14.202;2022-07-18T08:42:40;8.90;;;4.43;;
3971;SDS011;2000;47.572;14.202;2022-07-18T08:45:27;11.90;;;4.87;;
3971;SDS011;2000;47.572;14.202;2022-07-18T08:47:54;4.33;;;3.70;;
3971;SDS011;2000;47.572;14.202;2022-07-18T08:50:21;6.90;;;3.70;;
3971;SDS011;2000;47.572;14.202;2022-07-18T08:52:49;6.97;;;3.80;;
3971;SDS011;2000;47.572;14.202;2022-07-18T08:55:20;10.33;;;4.63;;
3971;SDS011;2000;47.572;14.202;2022-07-18T08:57:55;4.27;;;3.80;;
3971;SDS011;2000;47.572;14.202;2022-07-18T09:00:22;8.13;;;4.40;;
3971;SDS011;2000;47.572;14.202;2022-07-18T09:02:56;17.47;;;4.97;;
3971;SDS011;2000;47.572;14.202;2022-07-18T09:05:23;6.50;;;4.27;;
3971;SDS011;2000;47.572;14.202;2022-07-18T09:10:47;6.63;;;3.43;;
3971;SDS011;2000;47.572;14.202;2022-07-18T09:16:01;5.20;;;4.10;;
3971;SDS011;2000;47.572;14.202;2022-07-18T09:18:54;4.47;;;3.67;;
3971;SDS011;2000;47.572;14.202;2022-07-18T09:21:22;5.23;;;3.50;;
3971;SDS011;2000;47.572;14.202;2022-07-18T09:23:51;6.17;;;4.03;;
3971;SDS011;2000;47.572;14.202;2022-07-18T09:29:06;5.83;;;3.00;;
3971;SDS011;2000;47.572;14.202;2022-07-18T09:31:52;8.77;;;3.17;;
3971;SDS011;2000;47.572;14.202;2022-07-18T09:34:34;5.17;;;3.30;;
3971;SDS011;2000;47.572;14.202;2022-07-18T09:37:03;7.37;;;3.47;;
3971;SDS011;2000;47.572;14.202;2022-07-18T09:39:31;7.03;;;2.70;;
3971;SDS011;2000;47.572;14.202;2022-07-18T09:42:14;11.57;;;2.43;;
3971;SDS011;2000;47.572;14.202;2022-07-18T09:44:57;2.93;;;2.70;;
3971;SDS011;2000;47.572;14.202;2022-07-18T09:47:25;3.20;;;2.70;;
3971;SDS011;2000;47.572;14.202;2022-07-18T09:49:52;5.13;;;2.97;;
3971;SDS011;2000;47.572;14.202;2022-07-18T09:52:20;11.27;;;2.80;;
3971;SDS011;2000;47.572;14.202;2022-07-18T09:54:48;5.43;;;3.30;;
3971;SDS011;2000;47.572;14.202;2022-07-18T09:57:26;7.43;;;2.97;;
3971;SDS011;2000;47.572;14.202;2022-07-18T09:59:53;4.00;;;2.50;;
3971;SDS011;2000;47.572;14.202;2022-07-18T10:02:21;5.47;;;3.73;;
3971;SDS011;2000;47.572;14.202;2022-07-18T10:04:48;2.80;;;2.50;;
3971;SDS011;2000;47.572;14.202;2022-07-18T10:07:15;4.57;;;2.33;;
3971;SDS011;2000;47.572;14.202;2022-07-18T10:09:42;2.67;;;2.47;;
3971;SDS011;2000;47.572;14.202;2022-07-18T10:12:11;3.50;;;3.20;;
3971;SDS011;2000;47.572;14.202;2022-07-18T10:14:39;4.97;;;2.80;;
3971;SDS011;2000;47.572;14.202;2022-07-18T10:17:07;2.37;;;2.20;;
3971;SDS011;2000;47.572;14.202;2022-07-18T10:19:34;2.40;;;2.20;;
3971;SDS011;2000;47.572;14.202;2022-07-18T10:22:01;3.80;;;2.77;;
3971;SDS011;2000;47.572;14.202;2022-07-18T10:24:29;4.03;;;2.20;;
3971;SDS011;2000;47.572;14.202;2022-07-18T10:27:16;2.40;;;2.10;;
3971;SDS011;2000;47.572;14.202;2022-07-18T10:32:34;4.13;;;2.20;;
3971;SDS011;2000;47.572;14.202;2022-07-18T10:35:01;2.83;;;2.03;;
3971;SDS011;2000;47.572;14.202;2022-07-18T10:37:31;3.13;;;2.60;;
3971;SDS011;2000;47.572;14.202;2022-07-18T10:43:29;2.40;;;2.20;;
3971;SDS011;2000;47.572;14.202;2022-07-18T10:45:52;1.70;;;1.60;;
3971;SDS011;2000;47.572;14.202;2022-07-18T11:01:51;7.17;;;2.40;;
3971;SDS011;2000;47.572;14.202;2022-07-18T11:04:27;7.53;;;2.57;;
3971;SDS011;2000;47.572;14.202;2022-07-18T11:07:14;10.17;;;2.00;;
3971;SDS011;2000;47.572;14.202;2022-07-18T11:09:45;3.33;;;2.17;;
3971;SDS011;2000;47.572;14.202;2022-07-18T11:15:10;3.03;;;2.73;;
3971;SDS011;2000;47.572;14.202;2022-07-18T11:20:29;2.30;;;1.87;;
3971;SDS011;2000;47.572;14.202;2022-07-18T11:23:26;1.87;;;1.77;;
3971;SDS011;2000;47.572;14.202;2022-07-18T11:25:57;2.70;;;2.30;;
3971;SDS011;2000;47.572;14.202;2022-07-18T11:28:26;5.23;;;2.10;;
3971;SDS011;2000;47.572;14.202;2022-07-18T11:31:01;2.27;;;2.10;;
3971;SDS011;2000;47.572;14.202;2022-07-18T11:33:37;2.10;;;1.70;;
3971;SDS011;2000;47.572;14.202;2022-07-18T11:36:14;2.13;;;1.93;;
3971;SDS011;2000;47.572;14.202;2022-07-18T11:38:47;2.70;;;2.10;;
3971;SDS011;2000;47.572;14.202;2022-07-18T11:41:16;2.50;;;2.10;;
3971;SDS011;2000;47.572;14.202;2022-07-18T11:43:44;4.37;;;1.73;;
3971;SDS011;2000;47.572;14.202;2022-07-18T11:46:12;2.63;;;2.30;;
3971;SDS011;2000;47.572;14.202;2022-07-18T11:48:46;2.40;;;2.20;;
3971;SDS011;2000;47.572;14.202;2022-07-18T11:51:15;2.87;;;1.70;;
3971;SDS011;2000;47.572;14.202;2022-07-18T11:53:47;5.90;;;2.23;;
3971;SDS011;2000;47.572;14.202;2022-07-18T11:56:14;2.17;;;2.07;;
3971;SDS011;2000;47.572;14.202;2022-07-18T11:58:42;4.70;;;1.80;;
3971;SDS011;2000;47.572;14.202;2022-07-18T12:01:10;2.07;;;1.80;;
3971;SDS011;2000;47.572;14.202;2022-07-18T12:03:41;2.53;;;2.33;;
3971;SDS011;2000;47.572;14.202;2022-07-18T12:06:15;5.50;;;2.50;;
3971;SDS011;2000;47.572;14.202;2022-07-18T12:08:55;3.43;;;1.80;;
3971;SDS011;2000;47.572;14.202;2022-07-18T12:11:36;2.40;;;2.20;;
3971;SDS011;2000;47.572;14.202;2022-07-18T12:16:41;2.73;;;1.83;;
3971;SDS011;2000;47.572;14.202;2022-07-18T12:19:17;2.50;;;1.97;;
3971;SDS011;2000;47.572;14.202;2022-07-18T12:21:51;2.37;;;1.97;;
3971;SDS011;2000;47.572;14.202;2022-07-18T12:35:19;2.43;;;2.33;;
3971;SDS011;2000;47.572;14.202;2022-07-18T12:37:53;3.23;;;2.37;;
3971;SDS011;2000;47.572;14.202;2022-07-18T12:40:25;3.77;;;2.00;;
3971;SDS011;2000;47.572;14.202;2022-07-18T12:43:10;2.83;;;1.80;;
3971;SDS011;2000;47.572;14.202;2022-07-18T12:46:00;2.13;;;2.03;;
3971;SDS011;2000;47.572;14.202;2022-07-18T12:48:29;6.70;;;2.43;;
3971;SDS011;2000;47.572;14.202;2022-07-18T12:51:02;2.93;;;1.90;;
3971;SDS011;2000;47.572;14.202;2022-07-18T12:53:30;4.03;;;1.77;;
3971;SDS011;2000;47.572;14.202;2022-07-18T12:55:58;3.77;;;1.50;;
3971;SDS011;2000;47.572;14.202;2022-07-18T12:58:25;6.70;;;1.90;;
3971;SDS011;2000;47.572;14.202;2022-07-18T13:00:52;2.40;;;2.07;;
3971;SDS011;2000;47.572;14.202;2022-07-18T13:03:31;2.30;;;1.80;;
3971;SDS011;2000;47.572;14.202;2022-07-18T13:05:59;2.60;;;2.40;;
3971;SDS011;2000;47.572;14.202;2022-07-18T13:08:26;2.07;;;1.87;;
3971;SDS011;2000;47.572;14.202;2022-07-18T13:10:54;3.10;;;2.10;;
3971;SDS011;2000;47.572;14.202;2022-07-18T13:13:21;2.00;;;1.77;;
3971;SDS011;2000;47.572;14.202;2022-07-18T13:15:48;3.33;;;1.47;;
3971;SDS011;2000;47.572;14.202;2022-07-18T13:18:15;1.40;;;1.27;;
3971;SDS011;2000;47.572;14.202;2022-07-18T13:20:42;2.67;;;1.93;;
3971;SDS011;2000;47.572;14.202;2022-07-18T13:23:09;2.50;;;1.90;;
3971;SDS011;2000;47.572;14.202;2022-07-18T13:25:39;9.90;;;2.07;;
3971;SDS011;2000;47.572;14.202;2022-07-18T13:28:06;1.53;;;1.40;;
3971;SDS011;2000;47.572;14.202;2022-07-18T13:30:33;2.00;;;1.80;;
3971;SDS011;2000;47.572;14.202;2022-07-18T13:33:00;1.80;;;1.70;;
3971;SDS011;2000;47.572;14.202;2022-07-18T13:35:27;2.03;;;1.90;;
3971;SDS011;2000;47.572;14.202;2022-07-18T13:37:53;2.27;;;1.80;;
3971;SDS011;2000;47.572;14.202;2022-07-18T13:40:21;7.50;;;1.87;;
3971;SDS011;2000;47.572;14.202;2022-07-18T13:42:53;5.00;;;2.00;;
3971;SDS011;2000;47.572;14.202;2022-07-18T13:45:20;2.60;;;1.37;;
3971;SDS011;2000;47.572;14.202;2022-07-18T13:47:47;1.53;;;1.43;;
3971;SDS011;2000;47.572;14.202;2022-07-18T13:50:14;1.80;;;1.53;;
3971;SDS011;2000;47.572;14.202;2022-07-18T13:52:41;2.30;;;1.50;;
3971;SDS011;2000;47.572;14.202;2022-07-18T13:55:09;4.03;;;2.00;;
3971;SDS011;2000;47.572;14.202;2022-07-18T13:57:37;4.00;;;1.70;;
3971;SDS011;2000;47.572;14.202;2022-07-18T14:00:05;1.53;;;1.37;;
3971;SDS011;2000;47.572;14.202;2022-07-18T14:02:33;1.70;;;1.60;;
3971;SDS011;2000;47.572;14.202;2022-07-18T14:05:00;3.37;;;1.60;;
3971;SDS011;2000;47.572;14.202;2022-07-18T14:07:43;3.00;;;1.80;;
3971;SDS011;2000;47.572;14.202;2022-07-18T14:10:11;4.00;;;1.87;;
3971;SDS011;2000;47.572;14.202;2022-07-18T14:12:39;3.60;;;1.33;;
3971;SDS011;2000;47.572;14.202;2022-07-18T14:15:06;2.40;;;1.20;;
3971;SDS011;2000;47.572;14.202;2022-07-18T14:17:34;2.13;;;1.93;;
3971;SDS011;2000;47.572;14.202;2022-07-18T14:20:01;2.77;;;1.60;;
3971;SDS011;2000;47.572;14.202;2022-07-18T14:22:29;1.97;;;1.87;;
3971;SDS011;2000;47.572;14.202;2022-07-18T14:24:55;2.00;;;1.80;;
3971;SDS011;2000;47.572;14.202;2022-07-18T14:27:22;3.03;;;1.70;;
3971;SDS011;2000;47.572;14.202;2022-07-18T14:29:50;2.43;;;1.70;;
3971;SDS011;2000;47.572;14.202;2022-07-18T14:32:17;1.23;;;1.13;;
3971;SDS011;2000;47.572;14.202;2022-07-18T14:34:45;3.10;;;1.70;;
3971;SDS011;2000;47.572;14.202;2022-07-18T14:37:11;2.50;;;2.30;;
3971;SDS011;2000;47.572;14.202;2022-07-18T14:39:38;4.60;;;1.57;;
3971;SDS011;2000;47.572;14.202;2022-07-18T14:42:05;2.20;;;1.70;;
3971;SDS011;2000;47.572;14.202;2022-07-18T14:44:32;1.70;;;1.60;;
3971;SDS011;2000;47.572;14.202;2022-07-18T14:46:59;1.60;;;1.50;;
3971;SDS011;2000;47.572;14.202;2022-07-18T14:49:26;2.20;;;1.80;;
3971;SDS011;2000;47.572;14.202;2022-07-18T14:51:53;3.83;;;1.97;;
3971;SDS011;2000;47.572;14.202;2022-07-18T14:54:22;1.60;;;1.43;;
3971;SDS011;2000;47.572;14.202;2022-07-18T14:56:50;9.80;;;1.80;;
3971;SDS011;2000;47.572;14.202;2022-07-18T14:59:19;3.17;;;1.77;;
3971;SDS011;2000;47.572;14.202;2022-07-18T15:01:47;3.83;;;1.40;;
3971;SDS011;2000;47.572;14.202;2022-07-18T15:04:14;1.37;;;1.30;;
3971;SDS011;2000;47.572;14.202;2022-07-18T15:06:44;2.90;;;2.00;;
3971;SDS011;2000;47.572;14.202;2022-07-18T15:09:11;1.60;;;1.50;;
3971;SDS011;2000;47.572;14.202;2022-07-18T15:11:41;1.20;;;1.10;;
3971;SDS011;2000;47.572;14.202;2022-07-18T15:14:08;1.33;;;1.20;;
3971;SDS011;2000;47.572;14.202;2022-07-18T15:16:35;3.50;;;1.70;;
3971;SDS011;2000;47.572;14.202;2022-07-18T15:19:03;2.27;;;2.07;;
3971;SDS011;2000;47.572;14.202;2022-07-18T15:21:30;10.03;;;2.43;;
3971;SDS011;2000;47.572;14.202;2022-07-18T15:23:58;14.37;;;1.77;;
3971;SDS011;2000;47.572;14.202;2022-07-18T15:26:25;5.53;;;1.73;;
3971;SDS011;2000;47.572;14.202;2022-07-18T15:28:52;1.57;;;1.47;;
3971;SDS011;2000;47.572;14.202;2022-07-18T15:31:19;3.10;;;2.10;;
3971;SDS011;2000;47.572;14.202;2022-07-18T15:33:46;2.77;;;2.40;;
3971;SDS011;2000;47.572;14.202;2022-07-18T15:36:12;5.00;;;1.80;;
3971;SDS011;2000;47.572;14.202;2022-07-18T15:38:39;2.57;;;2.10;;
3971;SDS011;2000;47.572;14.202;2022-07-18T15:41:07;2.03;;;1.83;;
3971;SDS011;2000;47.572;14.202;2022-07-18T15:43:34;2.83;;;1.60;;
3971;SDS011;2000;47.572;14.202;2022-07-18T15:46:02;3.70;;;1.67;;
3971;SDS011;2000;47.572;14.202;2022-07-18T15:48:30;3.03;;;1.93;;
3971;SDS011;2000;47.572;14.202;2022-07-18T15:50:57;1.83;;;1.73;;
3971;SDS011;2000;47.572;14.202;2022-07-18T15:53:24;2.20;;;2.00;;
3971;SDS011;2000;47.572;14.202;2022-07-18T15:55:51;5.23;;;2.00;;
3971;SDS011;2000;47.572;14.202;2022-07-18T15:58:17;1.90;;;1.63;;